Time;durP1;ratioP1;P1;durP2;ratioP2;P2;SDS_P1;SDS_P2;PMS_P1;PMS_P2;Temp;Humidity;BMP_temperature;BMP_pressure;BME280_temperature;BME280_humidity;BME280_pressure;Samples;Min_cycle;Max_cycle;Signal;HPM_P1;HPM_P2
2022/06/19 00:01:23;;;;;;;4.88;2.25;;;24.40;96.90;;;;;;5090438;28;20263;-72
2022/06/19 00:03:54;;;;;;;3.83;2.58;;;24.40;97.10;;;;;;5080069;28;20665;-71
2022/06/19 00:06:23;;;;;;;6.18;3.42;;;24.30;97.50;;;;;;5091930;28;20749;-70
2022/06/19 00:08:51;;;;;;;3.63;2.63;;;24.40;97.30;;;;;;5092461;28;20205;-71
2022/06/19 00:11:19;;;;;;;8.27;3.67;;;24.30;98.50;;;;;;5092250;28;20205;-71
2022/06/19 00:13:47;;;;;;;5.05;2.72;;;24.30;98.10;;;;;;5092085;28;20254;-70
2022/06/19 00:16:14;;;;;;;5.65;2.92;;;24.30;98.20;;;;;;5092469;28;20205;-77
2022/06/19 00:18:41;;;;;;;9.07;3.25;;;24.30;99.10;;;;;;5092196;28;20306;-71
2022/06/19 00:21:09;;;;;;;3.63;2.90;;;24.30;98.50;;;;;;5092452;28;20247;-71
2022/06/19 00:23:37;;;;;;;8.30;3.53;;;24.30;99.10;;;;;;5091866;28;20210;-72
2022/06/19 00:26:04;;;;;;;2.97;2.67;;;24.20;98.70;;;;;;5092244;28;20240;-70
2022/06/19 00:28:31;;;;;;;6.60;4.05;;;24.20;99.40;;;;;;5091411;28;20262;-69
2022/06/19 00:30:58;;;;;;;5.50;2.95;;;24.20;99.30;;;;;;5092051;28;20255;-70
2022/06/19 00:33:25;;;;;;;8.02;3.88;;;24.30;99.60;;;;;;5091978;28;20266;-72
2022/06/19 00:35:52;;;;;;;2.88;2.40;;;24.30;99.90;;;;;;5091752;28;20754;-72
2022/06/19 00:38:19;;;;;;;7.93;3.40;;;24.20;99.90;;;;;;5091674;28;20229;-70
2022/06/19 00:40:48;;;;;;;5.63;3.63;;;24.20;99.90;;;;;;5091338;28;20564;-71
2022/06/19 00:43:15;;;;;;;5.03;2.65;;;24.30;99.90;;;;;;5091938;28;20267;-70
2022/06/19 00:45:49;;;;;;;6.55;2.67;;;24.20;99.90;;;;;;5091640;28;20209;-70
2022/06/19 00:48:21;;;;;;;4.10;3.05;;;24.10;99.90;;;;;;5091715;28;20672;-70
2022/06/19 00:50:51;;;;;;;4.75;2.50;;;24.10;99.90;;;;;;5091439;28;20665;-69
2022/06/19 00:53:22;;;;;;;7.72;2.97;;;24.00;99.90;;;;;;5091194;28;20227;-70
2022/06/19 00:55:51;;;;;;;6.80;2.97;;;24.10;99.90;;;;;;5091109;28;20209;-69
2022/06/19 00:58:22;;;;;;;7.05;2.83;;;24.10;99.90;;;;;;5085732;28;20229;-75
2022/06/19 01:00:55;;;;;;;6.53;3.05;;;24.10;99.90;;;;;;5076578;28;20308;-74
2022/06/19 01:03:27;;;;;;;4.32;2.90;;;24.00;99.90;;;;;;5073482;28;20206;-69
2022/06/19 01:05:54;;;;;;;4.95;3.15;;;24.00;99.90;;;;;;5084518;28;20202;-69
2022/06/19 01:08:21;;;;;;;6.40;2.83;;;24.00;99.90;;;;;;5078298;28;20582;-76
2022/06/19 01:10:52;;;;;;;4.07;2.70;;;24.10;99.90;;;;;;5089829;28;20201;-71
2022/06/19 01:13:22;;;;;;;7.00;3.50;;;24.10;99.90;;;;;;5090894;28;20255;-71
2022/06/19 01:15:49;;;;;;;9.27;3.58;;;24.10;99.90;;;;;;5087389;28;20206;-71
2022/06/19 01:18:18;;;;;;;4.90;2.88;;;24.10;99.90;;;;;;5080667;28;20229;-69
2022/06/19 01:20:45;;;;;;;2.97;2.65;;;24.00;99.90;;;;;;5091164;28;20673;-70
2022/06/19 01:23:19;;;;;;;7.50;3.40;;;24.00;99.90;;;;;;5084630;28;20206;-70
2022/06/19 01:25:50;;;;;;;7.38;3.03;;;23.80;99.90;;;;;;5070402;28;20198;-71
2022/06/19 01:31:08;;;;;;;6.55;3.45;;;23.80;99.90;;;;;;5070909;28;20717;-70
2022/06/19 01:33:44;;;;;;;8.30;5.20;;;23.80;99.90;;;;;;5070340;28;20210;-70
2022/06/19 01:36:13;;;;;;;4.18;2.67;;;23.80;99.90;;;;;;5072872;28;20210;-69
2022/06/19 01:38:42;;;;;;;5.82;3.35;;;23.80;99.90;;;;;;5070811;28;20240;-69
2022/06/19 01:41:15;;;;;;;6.38;3.20;;;23.70;99.90;;;;;;5070339;28;20214;-72
2022/06/19 01:43:42;;;;;;;6.10;4.00;;;23.80;99.90;;;;;;5070839;28;20221;-71
2022/06/19 01:46:09;;;;;;;4.65;3.33;;;23.80;99.90;;;;;;5070324;28;20260;-72
2022/06/19 01:48:38;;;;;;;5.00;3.70;;;23.70;99.90;;;;;;5070495;28;20279;-72
2022/06/19 01:51:07;;;;;;;3.95;3.55;;;23.60;99.90;;;;;;5070290;28;20729;-69
2022/06/19 01:53:39;;;;;;;6.20;3.92;;;23.60;99.90;;;;;;5069882;28;20245;-72
2022/06/19 01:56:07;;;;;;;4.75;3.55;;;23.40;99.90;;;;;;5070268;28;20210;-69
2022/06/19 01:58:39;;;;;;;6.32;3.95;;;23.40;99.90;;;;;;5069982;28;20652;-73
2022/06/19 02:01:08;;;;;;;6.57;3.25;;;23.50;99.90;;;;;;5070198;28;20249;-70
2022/06/19 02:03:40;;;;;;;7.88;4.18;;;23.40;99.90;;;;;;5070178;28;20254;-70
2022/06/19 02:06:10;;;;;;;7.47;4.05;;;23.60;99.90;;;;;;5070255;28;20677;-71
2022/06/19 02:08:38;;;;;;;4.22;3.83;;;23.50;99.90;;;;;;5072591;28;20263;-71
2022/06/19 02:11:06;;;;;;;3.15;2.85;;;23.50;99.90;;;;;;5090554;28;21152;-72
2022/06/19 02:13:34;;;;;;;5.68;3.92;;;23.50;99.90;;;;;;5091498;28;20588;-69
2022/06/19 02:16:08;;;;;;;3.22;3.00;;;23.50;99.90;;;;;;5094794;28;20197;-70
2022/06/19 02:18:38;;;;;;;3.90;3.30;;;23.50;99.90;;;;;;5094202;28;20606;-70
2022/06/19 02:21:07;;;;;;;4.20;3.47;;;23.40;99.90;;;;;;5094575;28;20201;-73
2022/06/19 02:23:36;;;;;;;5.88;5.00;;;23.30;99.90;;;;;;5093791;28;20250;-70
2022/06/19 02:26:05;;;;;;;5.47;4.35;;;23.30;99.90;;;;;;5089129;28;20259;-69
2022/06/19 02:28:36;;;;;;;4.53;3.80;;;23.30;99.90;;;;;;5073870;28;20214;-73
2022/06/19 02:31:06;;;;;;;8.50;3.90;;;23.20;99.90;;;;;;5074139;28;20213;-71
2022/06/19 02:33:37;;;;;;;4.43;4.03;;;23.20;99.90;;;;;;5073484;28;20202;-69
2022/06/19 02:36:39;;;;;;;8.38;3.67;;;23.30;99.90;;;;;;5074017;28;20206;-71
2022/06/19 02:39:34;;;;;;;9.30;3.90;;;23.20;99.90;;;;;;5073646;28;20291;-72
2022/06/19 02:42:24;;;;;;;4.78;3.55;;;23.40;99.90;;;;;;5073863;28;20595;-73
2022/06/19 02:44:53;;;;;;;5.72;3.55;;;23.30;99.90;;;;;;5063225;28;20259;-77
2022/06/19 02:47:23;;;;;;;6.07;3.78;;;23.30;99.90;;;;;;5073308;28;20217;-70
2022/06/19 02:49:50;;;;;;;9.20;4.93;;;23.30;99.90;;;;;;5073922;28;20206;-71
2022/06/19 02:52:17;;;;;;;4.30;3.75;;;23.20;99.90;;;;;;5072874;28;20264;-71
2022/06/19 02:54:44;;;;;;;7.25;3.97;;;23.20;99.90;;;;;;5074039;28;20562;-73
2022/06/19 02:57:13;;;;;;;8.57;3.92;;;23.20;99.90;;;;;;5074099;28;20632;-71
2022/06/19 02:59:41;;;;;;;6.55;3.67;;;23.20;99.90;;;;;;5073275;28;20592;-71
2022/06/19 03:02:09;;;;;;;7.50;4.30;;;23.20;99.90;;;;;;5073883;28;20233;-71
2022/06/19 03:04:42;;;;;;;6.85;5.05;;;23.20;99.90;;;;;;5073000;28;21293;-71
2022/06/19 03:07:09;;;;;;;5.85;3.70;;;23.30;99.90;;;;;;5072940;28;20210;-72
2022/06/19 03:09:36;;;;;;;8.02;4.45;;;23.30;99.90;;;;;;5072707;28;20256;-71
2022/06/19 03:12:03;;;;;;;7.10;3.95;;;23.20;99.90;;;;;;5073560;28;20202;-71
2022/06/19 03:14:30;;;;;;;6.25;4.13;;;23.30;99.90;;;;;;5072787;28;20252;-72
2022/06/19 03:16:57;;;;;;;5.90;3.53;;;23.30;99.90;;;;;;5073198;28;20259;-69
2022/06/19 03:19:24;;;;;;;7.80;4.65;;;23.30;99.90;;;;;;5072636;28;20229;-70
2022/06/19 03:21:52;;;;;;;5.00;4.20;;;23.30;99.90;;;;;;5072915;28;20202;-69
2022/06/19 03:24:19;;;;;;;5.57;4.40;;;23.30;99.90;;;;;;5072516;28;20206;-72
2022/06/19 03:26:46;;;;;;;5.03;3.97;;;23.30;99.90;;;;;;5072439;28;20260;-74
2022/06/19 03:29:13;;;;;;;5.28;3.88;;;23.30;99.90;;;;;;5073679;28;20210;-72
2022/06/19 03:31:40;;;;;;;8.55;5.22;;;23.20;99.90;;;;;;5072780;28;20202;-72
2022/06/19 03:34:07;;;;;;;7.43;3.90;;;23.20;99.90;;;;;;5072946;28;20279;-71
2022/06/19 03:36:34;;;;;;;8.20;5.97;;;23.20;99.90;;;;;;5072136;28;20550;-71
2022/06/19 03:39:02;;;;;;;4.90;4.28;;;23.30;99.90;;;;;;5072986;28;20312;-71
2022/06/19 03:41:29;;;;;;;4.82;3.95;;;23.20;99.90;;;;;;5072188;28;20702;-72
2022/06/19 03:43:56;;;;;;;9.05;4.47;;;23.10;99.90;;;;;;5072926;28;20256;-71
2022/06/19 03:46:23;;;;;;;7.28;5.20;;;23.10;99.90;;;;;;5072354;28;20210;-69
2022/06/19 03:48:52;;;;;;;7.65;3.45;;;23.10;99.90;;;;;;5072707;28;20202;-69
2022/06/19 03:51:23;;;;;;;10.00;4.32;;;23.10;99.90;;;;;;5072013;28;20206;-68
2022/06/19 03:53:50;;;;;;;9.48;5.47;;;23.10;99.90;;;;;;5072621;28;20202;-70
2022/06/19 03:56:20;;;;;;;10.50;4.43;;;23.00;99.90;;;;;;5072218;28;20206;-72
2022/06/19 03:58:47;;;;;;;11.27;4.80;;;23.10;99.90;;;;;;5072380;28;20276;-70
2022/06/19 04:01:16;;;;;;;8.55;5.28;;;23.00;99.90;;;;;;5072632;28;20213;-73
2022/06/19 04:03:43;;;;;;;5.68;4.40;;;23.10;99.90;;;;;;5072449;28;20210;-72
2022/06/19 04:06:12;;;;;;;8.15;4.05;;;23.00;99.90;;;;;;5072841;28;20581;-71
2022/06/19 04:08:40;;;;;;;5.85;4.43;;;23.10;99.90;;;;;;5074780;28;20212;-71
2022/06/19 04:11:08;;;;;;;6.75;4.05;;;23.00;99.90;;;;;;5092581;28;20209;-71
2022/06/19 04:13:36;;;;;;;4.75;3.92;;;23.00;99.90;;;;;;5091813;28;20665;-71
2022/06/19 04:16:07;;;;;;;9.10;4.53;;;22.90;99.90;;;;;;5092300;28;20271;-71
2022/06/19 04:18:35;;;;;;;7.05;5.03;;;23.10;99.90;;;;;;5091724;28;20217;-70
2022/06/19 04:21:03;;;;;;;5.47;4.65;;;23.00;99.90;;;;;;5092469;28;20216;-70
2022/06/19 04:23:30;;;;;;;7.60;4.57;;;23.00;99.90;;;;;;5091985;28;20213;-73
2022/06/19 04:25:57;;;;;;;6.40;4.45;;;23.00;99.90;;;;;;5092081;28;20201;-69
2022/06/19 04:28:24;;;;;;;9.35;4.55;;;23.00;99.90;;;;;;5091507;28;20607;-70
2022/06/19 04:30:54;;;;;;;9.70;4.25;;;23.00;99.90;;;;;;5091783;28;20235;-70
2022/06/19 04:33:22;;;;;;;9.23;5.45;;;23.00;99.90;;;;;;5091493;28;20665;-70
2022/06/19 04:35:49;;;;;;;5.53;4.75;;;23.10;99.90;;;;;;5091580;28;20231;-70
2022/06/19 04:38:17;;;;;;;5.65;4.68;;;23.00;99.90;;;;;;5091888;28;20210;-72
2022/06/19 04:40:44;;;;;;;5.85;4.60;;;23.10;99.90;;;;;;5091811;28;20232;-69
2022/06/19 04:43:13;;;;;;;4.85;4.43;;;23.00;99.90;;;;;;5092248;28;20205;-71
2022/06/19 04:45:40;;;;;;;7.05;4.18;;;23.10;99.90;;;;;;5091654;28;20209;-72
2022/06/19 04:48:10;;;;;;;5.68;4.40;;;23.00;99.90;;;;;;5091589;28;20209;-71
2022/06/19 04:50:37;;;;;;;5.38;4.82;;;23.10;99.90;;;;;;5091509;28;20834;-72
2022/06/19 04:53:04;;;;;;;5.50;4.70;;;23.20;99.90;;;;;;5091491;28;20592;-69
2022/06/19 04:55:31;;;;;;;7.43;4.60;;;23.20;99.90;;;;;;5091210;28;20599;-71
2022/06/19 04:58:01;;;;;;;6.40;4.85;;;23.20;99.90;;;;;;5091099;28;20235;-70
2022/06/19 05:00:28;;;;;;;4.95;3.85;;;23.20;99.90;;;;;;5085585;28;20230;-70
2022/06/19 05:02:55;;;;;;;6.38;4.35;;;23.20;99.90;;;;;;5081441;28;20202;-78
2022/06/19 05:05:24;;;;;;;5.28;4.78;;;23.20;99.90;;;;;;5071035;28;20202;-76
2022/06/19 05:07:51;;;;;;;5.63;4.90;;;23.20;99.90;;;;;;5071243;28;20242;-70
2022/06/19 05:10:19;;;;;;;5.32;4.25;;;23.20;99.90;;;;;;5070616;28;20239;-68
2022/06/19 05:12:46;;;;;;;8.98;5.43;;;23.20;99.90;;;;;;5071136;28;20260;-71
2022/06/19 05:15:13;;;;;;;9.25;4.35;;;23.40;99.90;;;;;;5071412;28;20670;-74
2022/06/19 05:17:40;;;;;;;8.88;5.18;;;23.30;99.90;;;;;;5065225;28;20669;-73
2022/06/19 05:20:08;;;;;;;5.72;5.18;;;23.50;99.90;;;;;;5068759;28;20685;-74
2022/06/19 05:22:36;;;;;;;6.53;4.88;;;23.40;99.90;;;;;;5070891;28;20198;-73
2022/06/19 05:25:08;;;;;;;7.78;5.13;;;23.40;99.90;;;;;;5071682;28;20206;-74
2022/06/19 05:27:35;;;;;;;6.35;5.45;;;23.30;99.90;;;;;;5070817;28;20264;-75
2022/06/19 05:30:03;;;;;;;7.43;5.32;;;23.40;99.90;;;;;;5072583;28;20242;-72
2022/06/19 05:32:30;;;;;;;7.80;5.05;;;23.40;99.90;;;;;;5073879;28;20202;-73
2022/06/19 05:34:57;;;;;;;7.75;5.03;;;23.50;99.90;;;;;;5072884;28;20252;-73
2022/06/19 05:37:23;;;;;;;6.57;4.88;;;23.60;99.90;;;;;;5072784;28;20264;-76
2022/06/19 05:39:52;;;;;;;6.45;4.88;;;23.60;99.90;;;;;;5073695;28;20280;-74
2022/06/19 05:42:19;;;;;;;6.70;4.55;;;23.60;99.90;;;;;;5076451;28;20240;-73
2022/06/19 05:44:46;;;;;;;5.55;4.22;;;23.60;99.90;;;;;;5074709;28;20198;-73
2022/06/19 05:47:13;;;;;;;7.07;5.07;;;23.70;99.90;;;;;;5076999;28;20263;-71
2022/06/19 05:49:40;;;;;;;5.55;3.95;;;23.70;99.90;;;;;;5074071;28;20208;-73
2022/06/19 05:52:16;;;;;;;7.10;5.20;;;23.80;99.90;;;;;;5073444;28;20581;-72
2022/06/19 05:54:43;;;;;;;10.68;5.15;;;23.90;99.90;;;;;;5075956;28;20201;-73
2022/06/19 05:57:11;;;;;;;6.03;4.22;;;23.80;99.90;;;;;;5074815;28;20214;-74
2022/06/19 05:59:38;;;;;;;5.10;4.38;;;24.00;99.90;;;;;;5077853;28;20275;-74
2022/06/19 06:02:06;;;;;;;8.82;4.90;;;24.10;99.90;;;;;;5075136;28;20206;-75
2022/06/19 06:04:33;;;;;;;8.20;4.53;;;24.00;99.90;;;;;;5080543;28;20214;-73
2022/06/19 06:07:00;;;;;;;12.43;5.30;;;23.90;99.90;;;;;;5076435;28;20206;-73
2022/06/19 06:09:27;;;;;;;5.20;4.30;;;24.10;99.90;;;;;;5070635;28;20218;-74
2022/06/19 06:11:54;;;;;;;4.72;4.20;;;24.10;99.90;;;;;;5071386;28;20616;-73
2022/06/19 06:14:22;;;;;;;7.75;4.70;;;24.30;99.90;;;;;;5070442;28;20597;-74
2022/06/19 06:16:49;;;;;;;6.60;5.15;;;24.50;99.90;;;;;;5071799;28;20256;-73
2022/06/19 06:19:16;;;;;;;4.70;4.25;;;24.50;99.90;;;;;;5056608;28;20222;-73
2022/06/19 06:21:43;;;;;;;5.05;3.97;;;24.50;99.90;;;;;;5070712;28;20677;-75
2022/06/19 06:24:13;;;;;;;6.82;5.15;;;24.80;99.90;;;;;;5071243;28;20208;-73
2022/06/19 06:26:40;;;;;;;6.78;5.10;;;24.70;99.90;;;;;;5070596;28;20296;-72
2022/06/19 06:29:08;;;;;;;7.03;4.25;;;24.80;99.90;;;;;;5071689;28;20727;-73
2022/06/19 06:31:37;;;;;;;4.88;4.43;;;25.00;99.90;;;;;;5070161;28;20210;-75
2022/06/19 06:34:05;;;;;;;5.18;3.92;;;25.00;99.90;;;;;;5071444;28;20228;-74
2022/06/19 06:36:32;;;;;;;6.95;4.68;;;24.80;99.90;;;;;;5066853;28;20775;-74
2022/06/19 06:38:59;;;;;;;7.28;4.50;;;25.00;99.90;;;;;;5068580;28;20252;-73
2022/06/19 06:41:26;;;;;;;3.97;3.58;;;25.20;99.90;;;;;;5075700;28;20238;-73
2022/06/19 06:43:54;;;;;;;4.80;3.50;;;25.30;99.90;;;;;;5069872;28;20206;-74
2022/06/19 06:46:24;;;;;;;6.93;3.95;;;25.50;99.90;;;;;;5083942;28;20202;-73
2022/06/19 06:48:55;;;;;;;4.38;3.95;;;25.20;99.90;;;;;;5071190;28;20202;-74
2022/06/19 06:51:25;;;;;;;7.13;4.30;;;25.30;99.90;;;;;;5071652;28;20245;-73
2022/06/19 06:53:53;;;;;;;4.88;4.05;;;25.40;99.90;;;;;;5070844;28;20293;-71
2022/06/19 06:56:20;;;;;;;6.38;5.63;;;25.40;99.90;;;;;;5067739;28;20276;-72
2022/06/19 06:58:48;;;;;;;6.50;3.92;;;25.40;99.90;;;;;;5069954;28;20216;-75
2022/06/19 07:01:18;;;;;;;8.00;4.88;;;25.50;99.90;;;;;;5073582;28;20230;-72
2022/06/19 07:03:46;;;;;;;6.03;4.72;;;25.60;99.90;;;;;;5073791;28;20264;-73
2022/06/19 07:06:15;;;;;;;4.68;3.65;;;25.60;99.90;;;;;;5073614;28;20670;-71
2022/06/19 07:08:42;;;;;;;8.80;4.80;;;26.00;99.90;;;;;;5076478;28;20232;-70
2022/06/19 07:11:15;;;;;;;4.95;3.85;;;25.90;99.90;;;;;;5093327;28;20209;-80
2022/06/19 07:13:43;;;;;;;5.80;3.88;;;26.10;99.90;;;;;;5074905;28;20260;-76
2022/06/19 07:16:10;;;;;;;4.43;3.67;;;26.00;99.90;;;;;;5075691;28;20206;-72
2022/06/19 07:18:37;;;;;;;6.82;6.13;;;25.90;99.90;;;;;;5070104;28;20215;-72
2022/06/19 07:21:04;;;;;;;4.65;4.13;;;26.10;99.90;;;;;;5076198;28;20226;-76
2022/06/19 07:23:32;;;;;;;6.22;3.45;;;26.20;99.90;;;;;;5078752;28;20258;-77
2022/06/19 07:26:00;;;;;;;3.92;3.63;;;26.20;99.90;;;;;;5076425;28;20206;-75
2022/06/19 07:28:27;;;;;;;9.40;4.13;;;26.20;99.90;;;;;;5070747;28;20233;-74
2022/06/19 07:30:55;;;;;;;6.60;4.97;;;26.40;99.90;;;;;;5073785;28;20213;-74
2022/06/19 07:33:22;;;;;;;5.00;4.22;;;26.50;99.90;;;;;;5063964;28;20202;-71
2022/06/19 07:35:48;;;;;;;10.80;3.75;;;26.60;99.90;;;;;;5079238;28;20244;-76
2022/06/19 07:38:16;;;;;;;4.57;3.65;;;26.40;99.90;;;;;;5071157;28;20231;-74
2022/06/19 07:40:45;;;;;;;10.93;4.10;;;26.80;99.90;;;;;;5081468;28;20230;-72
2022/06/19 07:43:12;;;;;;;6.55;4.20;;;27.00;99.90;;;;;;5078437;28;20230;-77
2022/06/19 07:45:39;;;;;;;5.60;3.60;;;27.10;99.90;;;;;;5068396;28;20276;-73
2022/06/19 07:50:50;;;;;;;7.20;3.90;;;26.90;99.90;;;;;;5075705;28;20209;-75
2022/06/19 07:53:17;;;;;;;4.93;3.63;;;27.20;99.90;;;;;;5075338;28;20206;-73
2022/06/19 07:55:45;;;;;;;7.88;4.35;;;27.40;99.90;;;;;;5075560;28;20210;-75
2022/06/19 07:58:12;;;;;;;10.30;3.53;;;27.50;99.90;;;;;;5078411;28;20206;-74
2022/06/19 08:00:39;;;;;;;5.07;3.58;;;27.80;99.90;;;;;;5069863;28;20233;-76
2022/06/19 08:03:07;;;;;;;8.40;4.63;;;27.80;99.90;;;;;;5080203;28;20719;-70
2022/06/19 08:05:36;;;;;;;7.05;3.55;;;27.50;99.90;;;;;;5076496;28;20203;-71
2022/06/19 08:08:05;;;;;;;6.90;3.75;;;27.80;99.90;;;;;;5076890;28;20263;-74
2022/06/19 08:10:35;;;;;;;4.13;3.58;;;28.40;99.90;;;;;;5071634;28;20202;-70
2022/06/19 08:13:04;;;;;;;3.55;3.10;;;27.90;99.90;;;;;;5067754;28;20268;-70
2022/06/19 08:15:31;;;;;;;7.55;3.17;;;27.80;99.90;;;;;;5072829;28;20249;-70
2022/06/19 08:17:58;;;;;;;8.38;4.63;;;27.80;99.90;;;;;;5088687;28;20623;-83
2022/06/19 08:20:26;;;;;;;6.80;3.53;;;27.80;99.90;;;;;;5071505;28;20230;-78
2022/06/19 08:22:53;;;;;;;3.88;3.20;;;28.10;99.90;;;;;;5066584;28;20650;-77
2022/06/19 08:25:22;;;;;;;3.83;3.20;;;28.40;99.90;;;;;;5077178;28;20210;-70
2022/06/19 08:27:50;;;;;;;9.18;3.88;;;28.00;99.90;;;;;;5069465;28;20258;-71
2022/06/19 08:30:23;;;;;;;9.27;4.22;;;27.80;99.90;;;;;;5091946;28;20210;-72
2022/06/19 08:32:50;;;;;;;9.50;3.80;;;28.10;99.90;;;;;;5077186;28;20278;-77
2022/06/19 08:35:17;;;;;;;10.95;5.20;;;28.20;99.90;;;;;;5091052;28;20202;-72
2022/06/19 08:37:48;;;;;;;7.15;4.32;;;28.20;99.90;;;;;;5070628;28;20256;-76
2022/06/19 08:40:35;;;;;;;5.13;3.35;;;28.40;99.90;;;;;;5071428;28;20230;-71
2022/06/19 08:43:18;;;;;;;8.18;3.75;;;28.50;99.90;;;;;;5067395;28;20264;-73
2022/06/19 08:45:55;;;;;;;5.60;3.42;;;28.70;99.90;;;;;;5071379;28;20251;-71
2022/06/19 08:48:46;;;;;;;9.95;3.85;;;28.90;99.90;;;;;;5070724;28;20259;-80
2022/06/19 08:51:24;;;;;;;4.00;3.42;;;29.30;99.90;;;;;;5071385;28;20210;-73
2022/06/19 08:54:08;;;;;;;5.82;3.70;;;29.20;99.90;;;;;;5071462;28;20255;-76
2022/06/19 08:56:43;;;;;;;4.40;2.95;;;29.30;99.90;;;;;;5059238;28;20374;-72
2022/06/19 08:59:18;;;;;;;8.05;3.25;;;29.20;99.90;;;;;;5071158;28;20213;-77
2022/06/19 09:01:53;;;;;;;5.72;3.88;;;29.20;99.90;;;;;;5071775;28;20237;-71
2022/06/19 09:07:20;;;;;;;6.05;3.15;;;29.80;99.90;;;;;;5071554;28;20209;-71
2022/06/19 09:10:15;;;;;;;7.70;3.75;;;30.10;99.90;;;;;;5082558;28;20269;-76
2022/06/19 09:13:00;;;;;;;7.22;2.78;;;30.40;99.90;;;;;;5065814;28;20677;-70
2022/06/19 09:15:36;;;;;;;7.15;2.85;;;30.40;99.90;;;;;;5090948;28;20261;-76
2022/06/19 09:18:07;;;;;;;4.55;3.10;;;32.80;99.90;;;;;;5091342;28;20212;-76
2022/06/19 09:20:42;;;;;;;6.60;2.92;;;33.60;99.90;;;;;;5090871;28;20256;-72
2022/06/19 09:23:31;;;;;;;5.63;3.72;;;33.30;99.90;;;;;;5090310;28;20204;-72
2022/06/19 09:26:02;;;;;;;4.40;2.60;;;33.90;99.90;;;;;;5068121;28;20693;-81
2022/06/19 09:28:35;;;;;;;4.03;2.58;;;33.80;99.90;;;;;;5070413;28;20228;-72
2022/06/19 09:31:09;;;;;;;6.28;2.97;;;34.80;99.90;;;;;;5070623;28;20223;-71
2022/06/19 09:33:46;;;;;;;9.30;3.20;;;34.50;99.90;;;;;;5070622;28;20209;-70
2022/06/19 09:36:21;;;;;;;4.65;3.28;;;34.00;99.90;;;;;;5070736;28;20205;-79
2022/06/19 09:38:56;;;;;;;7.47;3.10;;;33.80;99.90;;;;;;5070407;28;20259;-76
2022/06/19 09:41:29;;;;;;;4.85;3.20;;;33.20;99.90;;;;;;5056823;28;20229;-80
2022/06/19 09:44:03;;;;;;;6.95;3.25;;;32.10;99.90;;;;;;5070716;28;20258;-71
2022/06/19 09:46:36;;;;;;;5.80;3.13;;;32.00;99.90;;;;;;5070277;28;20206;-72
2022/06/19 09:49:12;;;;;;;5.15;3.22;;;31.80;99.90;;;;;;5070548;28;20205;-70
2022/06/19 09:51:50;;;;;;;6.80;3.30;;;31.70;99.90;;;;;;5070347;28;20274;-71
2022/06/19 09:54:23;;;;;;;6.32;3.88;;;31.90;99.90;;;;;;5070120;28;20201;-72
2022/06/19 09:56:55;;;;;;;4.03;2.63;;;32.60;99.90;;;;;;5070519;28;20626;-78
2022/06/19 09:59:28;;;;;;;6.07;2.78;;;32.60;99.90;;;;;;5069850;28;20632;-75
2022/06/19 10:01:58;;;;;;;4.20;2.90;;;32.90;99.90;;;;;;5070412;28;20268;-75
2022/06/19 10:04:35;;;;;;;5.38;2.92;;;33.20;99.90;;;;;;5070205;28;20254;-72
2022/06/19 10:07:08;;;;;;;4.13;2.70;;;32.50;99.90;;;;;;5069956;28;20288;-73
2022/06/19 10:09:40;;;;;;;7.20;3.28;;;32.50;99.90;;;;;;5060817;28;21070;-70
2022/06/19 10:12:15;;;;;;;4.72;2.88;;;33.40;99.90;;;;;;5069565;28;20209;-71
2022/06/19 10:14:44;;;;;;;10.40;3.60;;;35.30;99.90;;;;;;5070298;28;20205;-70
2022/06/19 10:17:20;;;;;;;5.88;3.10;;;36.60;99.90;;;;;;5070160;28;20661;-74
2022/06/19 10:19:51;;;;;;;6.65;3.05;;;35.70;99.90;;;;;;5070402;28;20630;-72
2022/06/19 10:22:35;;;;;;;6.78;3.75;;;35.40;99.90;;;;;;5069513;28;20278;-72
2022/06/19 10:25:17;;;;;;;7.03;3.28;;;35.10;99.90;;;;;;5070128;28;20205;-78
2022/06/19 10:27:55;;;;;;;4.90;2.47;;;35.60;99.90;;;;;;5070430;28;20205;-70
2022/06/19 10:30:29;;;;;;;8.65;4.30;;;34.70;99.90;;;;;;5069881;28;20294;-72
2022/06/19 10:33:08;;;;;;;5.65;3.58;;;35.60;99.90;;;;;;5070112;28;20198;-72
2022/06/19 10:35:44;;;;;;;5.85;2.60;;;36.70;99.90;;;;;;5072192;28;20596;-70
2022/06/19 10:38:41;;;;;;;6.88;3.05;;;34.70;99.90;;;;;;5074267;28;20205;-77
2022/06/19 10:42:00;;;;;;;4.60;3.05;;;33.20;99.90;;;;;;5072007;28;20236;-73
2022/06/19 10:44:13;;;;;;;6.75;3.97;;;32.70;99.90;;;;;;5073712;28;20233;-74
2022/06/19 10:46:41;;;;;;;9.23;8.32;;;32.20;99.90;;;;;;5073757;28;20205;-73
2022/06/19 10:49:17;;;;;;;9.05;8.15;;;32.00;99.90;;;;;;5073815;28;20208;-71
2022/06/19 10:51:56;;;;;;;11.48;8.38;;;31.90;99.90;;;;;;5073879;28;20623;-71
2022/06/19 10:54:47;;;;;;;9.23;5.70;;;32.50;99.90;;;;;;5073255;28;20201;-71
2022/06/19 10:57:20;;;;;;;10.43;6.15;;;32.00;99.90;;;;;;5074015;28;20335;-72
2022/06/19 10:59:49;;;;;;;7.50;5.90;;;32.00;99.90;;;;;;5073500;28;20202;-71
2022/06/19 11:05:20;;;;;;;5.55;3.72;;;31.90;99.90;;;;;;5073371;28;20209;-70
2022/06/19 11:07:48;;;;;;;8.32;4.15;;;31.80;99.90;;;;;;5081902;28;20205;-72
2022/06/19 11:10:20;;;;;;;9.32;5.15;;;31.60;99.90;;;;;;5073574;28;20278;-73
2022/06/19 11:12:56;;;;;;;11.93;9.70;;;32.00;99.90;;;;;;5073393;28;20242;-73
2022/06/19 11:15:31;;;;;;;8.00;6.80;;;32.40;99.90;;;;;;5073026;28;20237;-71
2022/06/19 11:18:17;;;;;;;8.98;6.60;;;32.60;99.90;;;;;;5073335;28;20205;-72
2022/06/19 11:20:56;;;;;;;7.97;6.53;;;33.20;99.90;;;;;;5073235;28;20209;-71
2022/06/19 11:23:30;;;;;;;9.85;6.57;;;33.10;99.90;;;;;;5072865;28;20205;-72
2022/06/19 11:26:06;;;;;;;8.70;7.28;;;32.60;99.90;;;;;;5073367;28;20251;-70
2022/06/19 11:28:55;;;;;;;9.07;6.53;;;32.20;99.90;;;;;;5072689;28;20209;-71
2022/06/19 11:31:24;;;;;;;8.60;4.57;;;32.00;99.90;;;;;;5072569;28;20248;-76
2022/06/19 11:33:54;;;;;;;6.65;4.65;;;32.10;99.90;;;;;;5072936;28;20197;-72
2022/06/19 11:36:33;;;;;;;9.73;5.10;;;32.50;99.90;;;;;;5072901;28;20206;-72
2022/06/19 11:39:23;;;;;;;5.97;4.18;;;32.60;99.90;;;;;;5059054;28;20654;-73
2022/06/19 11:41:50;;;;;;;5.70;4.30;;;32.90;99.90;;;;;;5072471;28;20229;-72
2022/06/19 11:44:21;;;;;;;4.93;3.53;;;32.70;99.90;;;;;;5068697;28;20208;-71
2022/06/19 11:46:51;;;;;;;9.18;3.08;;;32.50;99.90;;;;;;5066089;28;20739;-72
2022/06/19 11:49:30;;;;;;;4.32;3.92;;;32.20;99.90;;;;;;5072349;28;20213;-71
2022/06/19 11:52:01;;;;;;;5.68;3.17;;;32.00;99.90;;;;;;5072501;28;20283;-74
2022/06/19 11:54:32;;;;;;;6.25;3.75;;;32.30;99.90;;;;;;5072419;28;20213;-72
2022/06/19 11:57:00;;;;;;;7.47;3.45;;;32.30;99.90;;;;;;5072742;28;20213;-72
2022/06/19 11:59:36;;;;;;;4.60;3.03;;;33.00;99.90;;;;;;5072433;28;20250;-77
2022/06/19 12:02:20;;;;;;;9.43;3.63;;;33.20;99.90;;;;;;5072713;28;20240;-74
2022/06/19 12:04:53;;;;;;;8.40;3.42;;;32.90;99.90;;;;;;5060915;28;20290;-72
2022/06/19 12:07:22;;;;;;;8.90;3.88;;;33.00;99.90;;;;;;5071846;28;20626;-70
2022/06/19 12:09:57;;;;;;;6.13;3.20;;;32.80;99.90;;;;;;5085068;28;20626;-71
2022/06/19 12:12:25;;;;;;;8.10;3.50;;;32.90;99.90;;;;;;5091992;28;20247;-72
2022/06/19 12:15:01;;;;;;;9.60;4.03;;;33.10;99.90;;;;;;5092423;28;20237;-71
2022/06/19 12:17:38;;;;;;;7.90;4.38;;;33.30;99.90;;;;;;5092014;28;20200;-70
2022/06/19 12:20:21;;;;;;;5.85;3.83;;;33.80;99.90;;;;;;5092606;28;20258;-71
2022/06/19 12:22:52;;;;;;;8.88;4.22;;;33.70;99.90;;;;;;5066777;28;20241;-72
2022/06/19 12:25:36;;;;;;;9.18;4.93;;;34.00;99.90;;;;;;5091945;28;20265;-73
2022/06/19 12:28:11;;;;;;;7.57;5.05;;;34.40;99.90;;;;;;5072025;28;20209;-73
2022/06/19 12:30:44;;;;;;;4.43;3.28;;;34.50;99.90;;;;;;5071693;28;20205;-72
2022/06/19 12:33:18;;;;;;;6.03;4.05;;;34.40;99.90;;;;;;5071838;28;20665;-75
2022/06/19 12:35:48;;;;;;;8.55;4.40;;;34.20;99.90;;;;;;5072182;28;20219;-74
2022/06/19 12:38:19;;;;;;;4.80;3.25;;;34.00;99.90;;;;;;5072092;28;20201;-73
2022/06/19 12:41:02;;;;;;;11.55;4.05;;;34.30;99.90;;;;;;5071656;28;20212;-72
2022/06/19 12:43:42;;;;;;;5.47;4.07;;;34.20;99.90;;;;;;5071328;28;20213;-74
2022/06/19 12:46:21;;;;;;;6.05;4.55;;;33.90;99.90;;;;;;5071482;28;20274;-73
2022/06/19 12:48:59;;;;;;;7.32;4.07;;;33.50;99.90;;;;;;5071718;28;20208;-76
2022/06/19 12:51:32;;;;;;;7.78;3.88;;;33.60;99.90;;;;;;5071167;28;20260;-74
2022/06/19 12:54:32;;;;;;;7.20;4.18;;;33.50;99.90;;;;;;5071547;28;20274;-73
2022/06/19 12:57:21;;;;;;;9.45;4.40;;;33.80;99.90;;;;;;5071015;28;20282;-73
2022/06/19 12:59:59;;;;;;;10.80;4.60;;;33.90;99.90;;;;;;5071433;28;20205;-73
2022/06/19 13:02:42;;;;;;;5.38;4.20;;;34.30;99.90;;;;;;5070577;28;20265;-73
2022/06/19 13:05:18;;;;;;;8.10;4.50;;;34.30;99.90;;;;;;5059008;28;20690;-72
2022/06/19 13:07:59;;;;;;;5.38;3.95;;;34.70;99.90;;;;;;5071313;28;20269;-73
2022/06/19 13:10:37;;;;;;;7.85;3.90;;;34.50;99.90;;;;;;5088479;28;20208;-71
2022/06/19 13:13:25;;;;;;;7.95;4.07;;;34.20;99.90;;;;;;5071171;28;20205;-73
2022/06/19 13:15:58;;;;;;;8.23;4.65;;;34.30;99.90;;;;;;5070680;28;20653;-74
2022/06/19 13:18:53;;;;;;;7.30;4.05;;;34.10;99.90;;;;;;5070864;28;20209;-73